sensor_id;sensor_type;location;lat;lon;timestamp;P1;durP1;ratioP1;P2;durP2;ratioP2
19004;SDS011;9635;52.078;8.648;2023-12-14T00:01:22;9.35;;;5.10;;
19004;SDS011;9635;52.078;8.648;2023-12-14T00:06:25;9.40;;;5.07;;
19004;SDS011;9635;52.078;8.648;2023-12-14T00:11:29;13.68;;;6.75;;
19004;SDS011;9635;52.078;8.648;2023-12-14T00:16:33;12.50;;;7.00;;
19004;SDS011;9635;52.078;8.648;2023-12-14T00:21:36;10.00;;;6.55;;
19004;SDS011;9635;52.078;8.648;2023-12-14T00:26:40;10.13;;;6.63;;
19004;SDS011;9635;52.078;8.648;2023-12-14T00:31:43;10.40;;;6.20;;
19004;SDS011;9635;52.078;8.648;2023-12-14T00:36:46;12.68;;;6.90;;
19004;SDS011;9635;52.078;8.648;2023-12-14T00:41:51;9.52;;;6.47;;
19004;SDS011;9635;52.078;8.648;2023-12-14T00:46:54;10.90;;;6.80;;
19004;SDS011;9635;52.078;8.648;2023-12-14T00:51:57;10.15;;;5.60;;
19004;SDS011;9635;52.078;8.648;2023-12-14T00:57:01;7.95;;;5.57;;
19004;SDS011;9635;52.078;8.648;2023-12-14T01:02:04;8.20;;;5.97;;
19004;SDS011;9635;52.078;8.648;2023-12-14T01:07:07;9.43;;;6.03;;
19004;SDS011;9635;52.078;8.648;2023-12-14T01:12:12;11.68;;;6.65;;
19004;SDS011;9635;52.078;8.648;2023-12-14T01:17:14;9.70;;;6.10;;
19004;SDS011;9635;52.078;8.648;2023-12-14T01:22:18;10.20;;;6.00;;
19004;SDS011;9635;52.078;8.648;2023-12-14T01:27:22;8.52;;;5.43;;
19004;SDS011;9635;52.078;8.648;2023-12-14T01:32:25;8.98;;;6.05;;
19004;SDS011;9635;52.078;8.648;2023-12-14T01:37:28;9.23;;;5.68;;
19004;SDS011;9635;52.078;8.648;2023-12-14T01:42:32;7.55;;;4.85;;
19004;SDS011;9635;52.078;8.648;2023-12-14T01:47:36;8.35;;;5.30;;
19004;SDS011;9635;52.078;8.648;2023-12-14T01:52:39;7.85;;;5.10;;
19004;SDS011;9635;52.078;8.648;2023-12-14T01:57:43;6.60;;;4.82;;
19004;SDS011;9635;52.078;8.648;2023-12-14T02:02:46;5.70;;;4.38;;
19004;SDS011;9635;52.078;8.648;2023-12-14T02:07:49;6.63;;;4.43;;
19004;SDS011;9635;52.078;8.648;2023-12-14T02:12:53;9.57;;;5.45;;
19004;SDS011;9635;52.078;8.648;2023-12-14T02:17:56;8.32;;;5.63;;
19004;SDS011;9635;52.078;8.648;2023-12-14T02:23:01;9.48;;;6.00;;
19004;SDS011;9635;52.078;8.648;2023-12-14T02:28:04;10.43;;;6.43;;
19004;SDS011;9635;52.078;8.648;2023-12-14T02:33:07;11.35;;;6.22;;
19004;SDS011;9635;52.078;8.648;2023-12-14T02:38:11;9.57;;;6.85;;
19004;SDS011;9635;52.078;8.648;2023-12-14T02:43:14;10.45;;;6.60;;
19004;SDS011;9635;52.078;8.648;2023-12-14T02:48:17;13.00;;;8.48;;
19004;SDS011;9635;52.078;8.648;2023-12-14T02:53:22;12.38;;;7.78;;
19004;SDS011;9635;52.078;8.648;2023-12-14T02:58:25;13.57;;;8.20;;
19004;SDS011;9635;52.078;8.648;2023-12-14T03:03:28;13.75;;;8.00;;
19004;SDS011;9635;52.078;8.648;2023-12-14T03:08:32;15.10;;;8.15;;
19004;SDS011;9635;52.078;8.648;2023-12-14T03:13:39;11.95;;;8.05;;
19004;SDS011;9635;52.078;8.648;2023-12-14T03:18:42;14.05;;;8.15;;
19004;SDS011;9635;52.078;8.648;2023-12-14T03:23:46;12.98;;;7.97;;
19004;SDS011;9635;52.078;8.648;2023-12-14T03:28:49;9.52;;;7.57;;
19004;SDS011;9635;52.078;8.648;2023-12-14T03:33:52;11.63;;;7.80;;
19004;SDS011;9635;52.078;8.648;2023-12-14T03:38:57;11.65;;;7.63;;
19004;SDS011;9635;52.078;8.648;2023-12-14T03:44:00;11.15;;;7.13;;
19004;SDS011;9635;52.078;8.648;2023-12-14T03:49:03;10.02;;;7.25;;
19004;SDS011;9635;52.078;8.648;2023-12-14T03:54:07;11.70;;;7.63;;
19004;SDS011;9635;52.078;8.648;2023-12-14T03:59:10;10.93;;;7.30;;
19004;SDS011;9635;52.078;8.648;2023-12-14T04:04:13;12.20;;;8.40;;
19004;SDS011;9635;52.078;8.648;2023-12-14T04:09:18;14.02;;;8.93;;
19004;SDS011;9635;52.078;8.648;2023-12-14T04:14:20;13.27;;;8.95;;
19004;SDS011;9635;52.078;8.648;2023-12-14T04:19:23;18.02;;;10.50;;
19004;SDS011;9635;52.078;8.648;2023-12-14T04:24:28;17.98;;;11.57;;
19004;SDS011;9635;52.078;8.648;2023-12-14T04:29:31;18.17;;;11.98;;
19004;SDS011;9635;52.078;8.648;2023-12-14T04:34:34;19.88;;;11.90;;
19004;SDS011;9635;52.078;8.648;2023-12-14T04:39:39;21.27;;;12.07;;
19004;SDS011;9635;52.078;8.648;2023-12-14T04:44:41;18.23;;;11.52;;
19004;SDS011;9635;52.078;8.648;2023-12-14T04:49:44;18.63;;;11.60;;
19004;SDS011;9635;52.078;8.648;2023-12-14T04:54:49;16.65;;;11.20;;
19004;SDS011;9635;52.078;8.648;2023-12-14T04:59:52;17.48;;;10.68;;
19004;SDS011;9635;52.078;8.648;2023-12-14T05:04:55;21.75;;;12.05;;
19004;SDS011;9635;52.078;8.648;2023-12-14T05:09:59;16.98;;;10.90;;
19004;SDS011;9635;52.078;8.648;2023-12-14T05:15:02;19.67;;;11.13;;
19004;SDS011;9635;52.078;8.648;2023-12-14T05:20:07;19.35;;;10.88;;
19004;SDS011;9635;52.078;8.648;2023-12-14T05:25:12;16.73;;;10.05;;
19004;SDS011;9635;52.078;8.648;2023-12-14T05:30:16;13.73;;;9.52;;
19004;SDS011;9635;52.078;8.648;2023-12-14T05:35:19;15.98;;;10.43;;
19004;SDS011;9635;52.078;8.648;2023-12-14T05:40:24;13.68;;;9.75;;
19004;SDS011;9635;52.078;8.648;2023-12-14T05:45:27;11.40;;;7.03;;
19004;SDS011;9635;52.078;8.648;2023-12-14T05:50:31;12.93;;;7.97;;
19004;SDS011;9635;52.078;8.648;2023-12-14T05:55:35;12.80;;;8.00;;
19004;SDS011;9635;52.078;8.648;2023-12-14T06:00:39;13.43;;;8.85;;
19004;SDS011;9635;52.078;8.648;2023-12-14T06:05:43;11.93;;;8.73;;
19004;SDS011;9635;52.078;8.648;2023-12-14T06:10:47;13.25;;;9.02;;
19004;SDS011;9635;52.078;8.648;2023-12-14T06:15:50;12.38;;;8.32;;
19004;SDS011;9635;52.078;8.648;2023-12-14T06:20:54;11.98;;;8.32;;
19004;SDS011;9635;52.078;8.648;2023-12-14T06:25:58;14.05;;;9.20;;
19004;SDS011;9635;52.078;8.648;2023-12-14T06:31:01;12.70;;;9.13;;
19004;SDS011;9635;52.078;8.648;2023-12-14T06:36:04;14.27;;;10.02;;
19004;SDS011;9635;52.078;8.648;2023-12-14T06:41:13;13.88;;;9.38;;
19004;SDS011;9635;52.078;8.648;2023-12-14T06:46:21;14.27;;;9.60;;
19004;SDS011;9635;52.078;8.648;2023-12-14T06:51:24;15.10;;;9.93;;
19004;SDS011;9635;52.078;8.648;2023-12-14T06:56:28;12.43;;;8.80;;
19004;SDS011;9635;52.078;8.648;2023-12-14T07:01:31;15.98;;;9.35;;
19004;SDS011;9635;52.078;8.648;2023-12-14T07:06:34;14.73;;;10.05;;
19004;SDS011;9635;52.078;8.648;2023-12-14T07:11:38;16.17;;;10.60;;
19004;SDS011;9635;52.078;8.648;2023-12-14T07:16:41;15.52;;;11.48;;
19004;SDS011;9635;52.078;8.648;2023-12-14T07:21:45;14.80;;;11.15;;
19004;SDS011;9635;52.078;8.648;2023-12-14T07:26:49;17.10;;;11.75;;
19004;SDS011;9635;52.078;8.648;2023-12-14T07:31:52;15.23;;;11.07;;
19004;SDS011;9635;52.078;8.648;2023-12-14T07:36:55;14.32;;;10.32;;
19004;SDS011;9635;52.078;8.648;2023-12-14T07:41:59;16.00;;;10.45;;
19004;SDS011;9635;52.078;8.648;2023-12-14T07:47:03;14.38;;;9.65;;
19004;SDS011;9635;52.078;8.648;2023-12-14T07:52:06;15.93;;;9.55;;
19004;SDS011;9635;52.078;8.648;2023-12-14T07:57:10;23.08;;;13.73;;
19004;SDS011;9635;52.078;8.648;2023-12-14T08:02:13;9.88;;;8.20;;
19004;SDS011;9635;52.078;8.648;2023-12-14T08:07:16;10.52;;;6.07;;
19004;SDS011;9635;52.078;8.648;2023-12-14T08:12:21;10.02;;;6.30;;
19004;SDS011;9635;52.078;8.648;2023-12-14T08:17:24;7.45;;;6.75;;
19004;SDS011;9635;52.078;8.648;2023-12-14T08:22:29;6.38;;;5.30;;
19004;SDS011;9635;52.078;8.648;2023-12-14T08:27:34;8.23;;;6.55;;
19004;SDS011;9635;52.078;8.648;2023-12-14T08:32:37;7.38;;;6.45;;
19004;SDS011;9635;52.078;8.648;2023-12-14T08:37:40;7.55;;;6.72;;
19004;SDS011;9635;52.078;8.648;2023-12-14T08:42:48;7.78;;;6.85;;
19004;SDS011;9635;52.078;8.648;2023-12-14T08:47:51;9.27;;;7.30;;
19004;SDS011;9635;52.078;8.648;2023-12-14T08:52:53;7.97;;;6.85;;
19004;SDS011;9635;52.078;8.648;2023-12-14T08:58:03;7.85;;;6.70;;
19004;SDS011;9635;52.078;8.648;2023-12-14T09:03:06;10.38;;;6.75;;
19004;SDS011;9635;52.078;8.648;2023-12-14T09:08:10;6.85;;;5.82;;
19004;SDS011;9635;52.078;8.648;2023-12-14T09:13:14;7.05;;;6.35;;
19004;SDS011;9635;52.078;8.648;2023-12-14T09:18:17;6.93;;;6.22;;
19004;SDS011;9635;52.078;8.648;2023-12-14T09:23:21;5.80;;;5.13;;
19004;SDS011;9635;52.078;8.648;2023-12-14T09:28:26;7.07;;;5.85;;
19004;SDS011;9635;52.078;8.648;2023-12-14T09:33:29;7.35;;;5.82;;
19004;SDS011;9635;52.078;8.648;2023-12-14T09:38:32;6.80;;;6.20;;
19004;SDS011;9635;52.078;8.648;2023-12-14T09:43:37;8.25;;;7.45;;
19004;SDS011;9635;52.078;8.648;2023-12-14T09:48:40;8.48;;;7.53;;
19004;SDS011;9635;52.078;8.648;2023-12-14T09:53:44;8.57;;;7.15;;
19004;SDS011;9635;52.078;8.648;2023-12-14T09:58:49;9.13;;;7.60;;
19004;SDS011;9635;52.078;8.648;2023-12-14T10:04:04;9.27;;;7.55;;
19004;SDS011;9635;52.078;8.648;2023-12-14T10:09:10;10.82;;;8.63;;
19004;SDS011;9635;52.078;8.648;2023-12-14T10:14:20;10.63;;;8.07;;
19004;SDS011;9635;52.078;8.648;2023-12-14T10:19:24;11.02;;;8.25;;
19004;SDS011;9635;52.078;8.648;2023-12-14T10:24:27;10.77;;;8.20;;
19004;SDS011;9635;52.078;8.648;2023-12-14T10:29:33;11.57;;;8.13;;
19004;SDS011;9635;52.078;8.648;2023-12-14T10:34:36;11.32;;;8.52;;
19004;SDS011;9635;52.078;8.648;2023-12-14T10:39:40;10.93;;;8.52;;
19004;SDS011;9635;52.078;8.648;2023-12-14T10:44:46;10.75;;;8.02;;
19004;SDS011;9635;52.078;8.648;2023-12-14T10:49:56;10.23;;;8.60;;
19004;SDS011;9635;52.078;8.648;2023-12-14T10:55:04;10.70;;;8.15;;
19004;SDS011;9635;52.078;8.648;2023-12-14T11:00:11;8.93;;;7.25;;
19004;SDS011;9635;52.078;8.648;2023-12-14T11:05:17;9.85;;;7.45;;
19004;SDS011;9635;52.078;8.648;2023-12-14T11:10:26;11.50;;;7.03;;
19004;SDS011;9635;52.078;8.648;2023-12-14T11:15:34;7.00;;;6.20;;
19004;SDS011;9635;52.078;8.648;2023-12-14T11:20:46;6.90;;;6.18;;
19004;SDS011;9635;52.078;8.648;2023-12-14T11:25:51;6.97;;;6.28;;
19004;SDS011;9635;52.078;8.648;2023-12-14T11:31:01;7.65;;;6.85;;
19004;SDS011;9635;52.078;8.648;2023-12-14T11:36:08;7.18;;;6.00;;
19004;SDS011;9635;52.078;8.648;2023-12-14T11:41:11;7.28;;;5.88;;
19004;SDS011;9635;52.078;8.648;2023-12-14T11:46:16;7.03;;;5.57;;
19004;SDS011;9635;52.078;8.648;2023-12-14T11:51:19;7.88;;;5.63;;
19004;SDS011;9635;52.078;8.648;2023-12-14T11:56:22;5.88;;;5.20;;
19004;SDS011;9635;52.078;8.648;2023-12-14T12:01:28;6.55;;;5.78;;
19004;SDS011;9635;52.078;8.648;2023-12-14T12:06:33;6.10;;;5.60;;
19004;SDS011;9635;52.078;8.648;2023-12-14T12:11:36;5.30;;;4.80;;
19004;SDS011;9635;52.078;8.648;2023-12-14T12:16:40;5.18;;;4.78;;
19004;SDS011;9635;52.078;8.648;2023-12-14T12:21:43;5.10;;;4.68;;
19004;SDS011;9635;52.078;8.648;2023-12-14T12:26:46;5.20;;;4.65;;
19004;SDS011;9635;52.078;8.648;2023-12-14T12:31:51;5.35;;;4.32;;
19004;SDS011;9635;52.078;8.648;2023-12-14T12:36:54;5.38;;;4.63;;
19004;SDS011;9635;52.078;8.648;2023-12-14T12:41:59;5.22;;;4.72;;
19004;SDS011;9635;52.078;8.648;2023-12-14T12:47:03;6.10;;;4.63;;
19004;SDS011;9635;52.078;8.648;2023-12-14T12:52:12;6.72;;;4.68;;
19004;SDS011;9635;52.078;8.648;2023-12-14T12:57:15;5.20;;;4.60;;
19004;SDS011;9635;52.078;8.648;2023-12-14T13:02:20;5.85;;;5.32;;
19004;SDS011;9635;52.078;8.648;2023-12-14T13:07:24;6.97;;;5.55;;
19004;SDS011;9635;52.078;8.648;2023-12-14T13:12:27;6.38;;;5.43;;
19004;SDS011;9635;52.078;8.648;2023-12-14T13:17:31;6.38;;;5.63;;
19004;SDS011;9635;52.078;8.648;2023-12-14T13:22:34;5.55;;;5.00;;
19004;SDS011;9635;52.078;8.648;2023-12-14T13:27:37;7.30;;;5.50;;
19004;SDS011;9635;52.078;8.648;2023-12-14T13:32:42;6.55;;;5.90;;
19004;SDS011;9635;52.078;8.648;2023-12-14T13:37:45;5.45;;;4.95;;
19004;SDS011;9635;52.078;8.648;2023-12-14T13:42:48;4.88;;;4.45;;
19004;SDS011;9635;52.078;8.648;2023-12-14T13:48:08;4.75;;;4.35;;
19004;SDS011;9635;52.078;8.648;2023-12-14T13:53:11;5.93;;;4.55;;
19004;SDS011;9635;52.078;8.648;2023-12-14T13:58:17;4.82;;;3.90;;
19004;SDS011;9635;52.078;8.648;2023-12-14T14:03:21;4.32;;;3.92;;
19004;SDS011;9635;52.078;8.648;2023-12-14T14:08:24;4.18;;;3.65;;
19004;SDS011;9635;52.078;8.648;2023-12-14T14:13:28;4.35;;;3.90;;
19004;SDS011;9635;52.078;8.648;2023-12-14T14:18:33;8.45;;;4.30;;
19004;SDS011;9635;52.078;8.648;2023-12-14T14:23:36;5.00;;;4.50;;
19004;SDS011;9635;52.078;8.648;2023-12-14T14:28:39;6.32;;;4.88;;
19004;SDS011;9635;52.078;8.648;2023-12-14T14:33:43;5.95;;;4.88;;
19004;SDS011;9635;52.078;8.648;2023-12-14T14:38:48;6.22;;;4.40;;
19004;SDS011;9635;52.078;8.648;2023-12-14T14:43:51;10.35;;;5.18;;
19004;SDS011;9635;52.078;8.648;2023-12-14T14:48:56;7.20;;;5.45;;
19004;SDS011;9635;52.078;8.648;2023-12-14T14:54:01;8.63;;;5.50;;
19004;SDS011;9635;52.078;8.648;2023-12-14T14:59:05;6.45;;;5.63;;
19004;SDS011;9635;52.078;8.648;2023-12-14T15:04:12;8.07;;;5.93;;
19004;SDS011;9635;52.078;8.648;2023-12-14T15:09:14;7.68;;;5.50;;
19004;SDS011;9635;52.078;8.648;2023-12-14T15:14:17;9.27;;;5.85;;
19004;SDS011;9635;52.078;8.648;2023-12-14T15:19:22;9.18;;;6.50;;
19004;SDS011;9635;52.078;8.648;2023-12-14T15:24:26;8.20;;;6.65;;
19004;SDS011;9635;52.078;8.648;2023-12-14T15:29:29;7.65;;;6.55;;
19004;SDS011;9635;52.078;8.648;2023-12-14T15:34:33;10.10;;;7.32;;
19004;SDS011;9635;52.078;8.648;2023-12-14T15:39:36;9.15;;;7.45;;
19004;SDS011;9635;52.078;8.648;2023-12-14T15:44:39;10.75;;;7.78;;
19004;SDS011;9635;52.078;8.648;2023-12-14T15:49:43;10.90;;;8.13;;
19004;SDS011;9635;52.078;8.648;2023-12-14T15:54:46;13.13;;;8.23;;
19004;SDS011;9635;52.078;8.648;2023-12-14T15:59:50;12.18;;;8.73;;
19004;SDS011;9635;52.078;8.648;2023-12-14T16:04:54;14.13;;;7.88;;
19004;SDS011;9635;52.078;8.648;2023-12-14T16:09:57;11.18;;;8.60;;
19004;SDS011;9635;52.078;8.648;2023-12-14T16:15:00;10.95;;;7.72;;
19004;SDS011;9635;52.078;8.648;2023-12-14T16:20:07;11.65;;;8.70;;
19004;SDS011;9635;52.078;8.648;2023-12-14T16:25:10;11.85;;;8.13;;
19004;SDS011;9635;52.078;8.648;2023-12-14T16:30:13;14.63;;;9.50;;
19004;SDS011;9635;52.078;8.648;2023-12-14T16:35:19;14.05;;;9.38;;
19004;SDS011;9635;52.078;8.648;2023-12-14T16:40:22;15.95;;;10.43;;
19004;SDS011;9635;52.078;8.648;2023-12-14T16:45:25;18.83;;;10.63;;
19004;SDS011;9635;52.078;8.648;2023-12-14T16:50:29;16.27;;;10.95;;
19004;SDS011;9635;52.078;8.648;2023-12-14T16:55:32;18.08;;;12.15;;
19004;SDS011;9635;52.078;8.648;2023-12-14T17:00:35;18.95;;;11.52;;
19004;SDS011;9635;52.078;8.648;2023-12-14T17:05:40;18.33;;;11.88;;
19004;SDS011;9635;52.078;8.648;2023-12-14T17:10:43;20.45;;;13.90;;
19004;SDS011;9635;52.078;8.648;2023-12-14T17:15:46;21.55;;;13.40;;
19004;SDS011;9635;52.078;8.648;2023-12-14T17:20:50;22.92;;;14.25;;
19004;SDS011;9635;52.078;8.648;2023-12-14T17:25:53;22.60;;;14.85;;
19004;SDS011;9635;52.078;8.648;2023-12-14T17:30:56;25.45;;;16.27;;
19004;SDS011;9635;52.078;8.648;2023-12-14T17:36:00;28.35;;;16.08;;
19004;SDS011;9635;52.078;8.648;2023-12-14T17:41:06;29.05;;;17.23;;
19004;SDS011;9635;52.078;8.648;2023-12-14T17:46:12;31.80;;;16.85;;
19004;SDS011;9635;52.078;8.648;2023-12-14T17:51:18;29.70;;;18.35;;
19004;SDS011;9635;52.078;8.648;2023-12-14T17:56:21;31.02;;;18.90;;
19004;SDS011;9635;52.078;8.648;2023-12-14T18:01:24;33.03;;;17.30;;
19004;SDS011;9635;52.078;8.648;2023-12-14T18:06:28;33.20;;;19.70;;
19004;SDS011;9635;52.078;8.648;2023-12-14T18:11:32;33.72;;;20.70;;
19004;SDS011;9635;52.078;8.648;2023-12-14T18:16:35;33.63;;;19.38;;
19004;SDS011;9635;52.078;8.648;2023-12-14T18:21:41;37.25;;;19.35;;
19004;SDS011;9635;52.078;8.648;2023-12-14T18:26:46;35.00;;;20.63;;
19004;SDS011;9635;52.078;8.648;2023-12-14T18:31:49;37.97;;;19.98;;
19004;SDS011;9635;52.078;8.648;2023-12-14T18:36:53;42.67;;;20.92;;
19004;SDS011;9635;52.078;8.648;2023-12-14T18:41:56;39.20;;;21.40;;
19004;SDS011;9635;52.078;8.648;2023-12-14T18:46:59;36.38;;;20.77;;
19004;SDS011;9635;52.078;8.648;2023-12-14T18:52:04;39.55;;;21.50;;
19004;SDS011;9635;52.078;8.648;2023-12-14T18:57:07;41.65;;;23.55;;
19004;SDS011;9635;52.078;8.648;2023-12-14T19:02:10;45.00;;;23.67;;
19004;SDS011;9635;52.078;8.648;2023-12-14T19:07:14;43.05;;;23.10;;
19004;SDS011;9635;52.078;8.648;2023-12-14T19:12:20;42.20;;;23.40;;
19004;SDS011;9635;52.078;8.648;2023-12-14T19:17:23;41.03;;;22.98;;
19004;SDS011;9635;52.078;8.648;2023-12-14T19:22:28;44.15;;;22.52;;
19004;SDS011;9635;52.078;8.648;2023-12-14T19:27:32;43.03;;;22.52;;
19004;SDS011;9635;52.078;8.648;2023-12-14T19:32:35;40.25;;;21.15;;
19004;SDS011;9635;52.078;8.648;2023-12-14T19:37:40;42.42;;;22.77;;
19004;SDS011;9635;52.078;8.648;2023-12-14T19:42:43;45.13;;;22.38;;
19004;SDS011;9635;52.078;8.648;2023-12-14T19:47:46;39.45;;;20.42;;
19004;SDS011;9635;52.078;8.648;2023-12-14T19:52:51;44.13;;;22.65;;
19004;SDS011;9635;52.078;8.648;2023-12-14T19:57:55;44.65;;;22.42;;
19004;SDS011;9635;52.078;8.648;2023-12-14T20:02:58;43.38;;;21.33;;
19004;SDS011;9635;52.078;8.648;2023-12-14T20:08:03;38.72;;;20.08;;
19004;SDS011;9635;52.078;8.648;2023-12-14T20:13:06;41.15;;;20.98;;
19004;SDS011;9635;52.078;8.648;2023-12-14T20:18:11;41.70;;;21.55;;
19004;SDS011;9635;52.078;8.648;2023-12-14T20:23:15;39.60;;;20.60;;
19004;SDS011;9635;52.078;8.648;2023-12-14T20:28:18;43.05;;;21.38;;
19004;SDS011;9635;52.078;8.648;2023-12-14T20:33:21;40.50;;;19.85;;
19004;SDS011;9635;52.078;8.648;2023-12-14T20:38:26;38.35;;;20.30;;
19004;SDS011;9635;52.078;8.648;2023-12-14T20:43:29;43.28;;;19.73;;
19004;SDS011;9635;52.078;8.648;2023-12-14T20:48:32;40.75;;;18.98;;
19004;SDS011;9635;52.078;8.648;2023-12-14T20:53:37;40.22;;;19.25;;
19004;SDS011;9635;52.078;8.648;2023-12-14T20:58:40;37.58;;;19.38;;
19004;SDS011;9635;52.078;8.648;2023-12-14T21:03:43;40.17;;;19.67;;
19004;SDS011;9635;52.078;8.648;2023-12-14T21:08:52;43.13;;;21.58;;
19004;SDS011;9635;52.078;8.648;2023-12-14T21:13:57;43.47;;;21.63;;
19004;SDS011;9635;52.078;8.648;2023-12-14T21:19:00;42.55;;;20.17;;
19004;SDS011;9635;52.078;8.648;2023-12-14T21:24:05;45.60;;;21.27;;
19004;SDS011;9635;52.078;8.648;2023-12-14T21:29:08;47.67;;;22.98;;
19004;SDS011;9635;52.078;8.648;2023-12-14T21:34:11;47.20;;;22.95;;
19004;SDS011;9635;52.078;8.648;2023-12-14T21:39:15;47.80;;;22.90;;
19004;SDS011;9635;52.078;8.648;2023-12-14T21:44:18;51.65;;;24.15;;
19004;SDS011;9635;52.078;8.648;2023-12-14T21:49:21;49.70;;;22.60;;
19004;SDS011;9635;52.078;8.648;2023-12-14T21:54:26;49.97;;;22.65;;
19004;SDS011;9635;52.078;8.648;2023-12-14T21:59:29;47.17;;;22.63;;
19004;SDS011;9635;52.078;8.648;2023-12-14T22:04:34;56.53;;;23.45;;
19004;SDS011;9635;52.078;8.648;2023-12-14T22:09:38;48.38;;;22.52;;
19004;SDS011;9635;52.078;8.648;2023-12-14T22:14:41;47.75;;;21.60;;
19004;SDS011;9635;52.078;8.648;2023-12-14T22:19:44;50.38;;;24.15;;
19004;SDS011;9635;52.078;8.648;2023-12-14T22:24:49;54.08;;;23.85;;
19004;SDS011;9635;52.078;8.648;2023-12-14T22:29:52;50.30;;;22.30;;
19004;SDS011;9635;52.078;8.648;2023-12-14T22:34:55;48.05;;;23.05;;
19004;SDS011;9635;52.078;8.648;2023-12-14T22:39:59;51.05;;;22.20;;
19004;SDS011;9635;52.078;8.648;2023-12-14T22:45:02;49.67;;;21.67;;
19004;SDS011;9635;52.078;8.648;2023-12-14T22:50:06;46.67;;;22.13;;
19004;SDS011;9635;52.078;8.648;2023-12-14T22:55:12;46.58;;;21.48;;
19004;SDS011;9635;52.078;8.648;2023-12-14T23:00:16;48.08;;;21.38;;
19004;SDS011;9635;52.078;8.648;2023-12-14T23:05:23;43.90;;;21.77;;
19004;SDS011;9635;52.078;8.648;2023-12-14T23:10:27;41.40;;;17.90;;
19004;SDS011;9635;52.078;8.648;2023-12-14T23:15:30;43.40;;;19.95;;
19004;SDS011;9635;52.078;8.648;2023-12-14T23:20:33;43.05;;;18.27;;
19004;SDS011;9635;52.078;8.648;2023-12-14T23:25:38;42.60;;;19.73;;
19004;SDS011;9635;52.078;8.648;2023-12-14T23:30:41;43.67;;;19.25;;
19004;SDS011;9635;52.078;8.648;2023-12-14T23:35:44;43.03;;;18.98;;
19004;SDS011;9635;52.078;8.648;2023-12-14T23:40:52;41.22;;;19.10;;
19004;SDS011;9635;52.078;8.648;2023-12-14T23:45:55;39.08;;;17.60;;
19004;SDS011;9635;52.078;8.648;2023-12-14T23:50:58;34.83;;;17.77;;
19004;SDS011;9635;52.078;8.648;2023-12-14T23:56:03;38.72;;;17.15;;
